Time;durP1;ratioP1;P1;durP2;ratioP2;P2;SDS_P1;SDS_P2;PMS_P1;PMS_P2;Temp;Humidity;BMP_temperature;BMP_pressure;BME280_temperature;BME280_humidity;BME280_pressure;Samples;Min_cycle;Max_cycle;Signal;HPM_P1;HPM_P2
2023/04/25 00:00:29;;;;;;;;;2.75;1.50;;;;;;;;5081237;27;61863;-80
2023/04/25 00:02:56;;;;;;;;;3.75;2.75;;;;;;;;5088874;27;62185;-80
2023/04/25 00:05:22;;;;;;;;;2.00;2.00;;;;;;;;5082700;27;62022;-81
2023/04/25 00:07:48;;;;;;;;;5.50;4.00;;;;;;;;5085355;27;61986;-81
2023/04/25 00:10:13;;;;;;;;;6.00;2.00;;;;;;;;5084541;27;61914;-81
2023/04/25 00:12:38;;;;;;;;;2.00;2.00;;;;;;;;5083577;28;62251;-81
2023/04/25 00:15:04;;;;;;;;;3.00;3.00;;;;;;;;5083237;27;61769;-80
2023/04/25 00:17:29;;;;;;;;;7.75;3.75;;;;;;;;5084300;27;62015;-81
2023/04/25 00:19:55;;;;;;;;;2.75;2.75;;;;;;;;5084510;28;61791;-80
2023/04/25 00:22:21;;;;;;;;;3.25;3.25;;;;;;;;5083314;28;61988;-81
2023/04/25 00:24:46;;;;;;;;;5.50;2.75;;;;;;;;5083593;28;61846;-80
2023/04/25 00:27:11;;;;;;;;;3.00;3.00;;;;;;;;5084665;28;62066;-80
2023/04/25 00:29:37;;;;;;;;;3.50;3.50;;;;;;;;5066895;28;61909;-81
2023/04/25 00:32:02;;;;;;;;;7.00;3.00;;;;;;;;5079087;28;61605;-81
2023/04/25 00:34:27;;;;;;;;;2.00;2.00;;;;;;;;5082568;27;62302;-81
2023/04/25 00:36:52;;;;;;;;;3.75;3.00;;;;;;;;5083286;28;62203;-81
2023/04/25 00:39:18;;;;;;;;;2.50;2.00;;;;;;;;5083551;28;61982;-81
2023/04/25 00:41:44;;;;;;;;;4.00;2.75;;;;;;;;5084565;27;61888;-81
2023/04/25 00:44:11;;;;;;;;;3.50;3.00;;;;;;;;5082229;28;64203;-80
2023/04/25 00:46:36;;;;;;;;;4.25;4.25;;;;;;;;5084338;27;61937;-80
2023/04/25 00:49:01;;;;;;;;;4.50;3.25;;;;;;;;5081549;27;61734;-81
2023/04/25 00:51:27;;;;;;;;;3.75;2.00;;;;;;;;5084239;28;62087;-81
2023/04/25 00:53:52;;;;;;;;;2.50;1.75;;;;;;;;5082157;28;64725;-81
2023/04/25 00:56:18;;;;;;;;;4.75;3.00;;;;;;;;5081878;27;61760;-81
2023/04/25 00:58:43;;;;;;;;;4.50;3.75;;;;;;;;5084754;27;61847;-81
2023/04/25 01:01:09;;;;;;;;;2.75;2.75;;;;;;;;5081731;28;62099;-80
2023/04/25 01:03:40;;;;;;;;;4.00;3.00;;;;;;;;5084106;27;61784;-81
2023/04/25 01:06:06;;;;;;;;;4.50;4.50;;;;;;;;5082446;27;63228;-80
2023/04/25 01:08:31;;;;;;;;;6.50;3.50;;;;;;;;5081584;28;62027;-80
2023/04/25 01:10:56;;;;;;;;;8.25;3.50;;;;;;;;5084677;28;62310;-80
2023/04/25 01:13:21;;;;;;;;;6.25;4.25;;;;;;;;5075102;28;61773;-80
2023/04/25 01:15:47;;;;;;;;;4.25;2.50;;;;;;;;5083907;28;62190;-80
2023/04/25 01:18:12;;;;;;;;;2.25;2.25;;;;;;;;5083551;28;61875;-80
2023/04/25 01:20:38;;;;;;;;;6.75;3.25;;;;;;;;5083150;27;61999;-80
2023/04/25 01:23:03;;;;;;;;;3.50;2.50;;;;;;;;5074920;28;62182;-80
2023/04/25 01:25:29;;;;;;;;;4.00;3.50;;;;;;;;5077564;28;62761;-80
2023/04/25 01:27:55;;;;;;;;;4.75;4.00;;;;;;;;5084238;27;61889;-80
2023/04/25 01:30:20;;;;;;;;;2.50;2.50;;;;;;;;5083357;27;62408;-80
2023/04/25 01:32:46;;;;;;;;;3.25;2.50;;;;;;;;5082910;28;61932;-80
2023/04/25 01:35:12;;;;;;;;;7.75;3.00;;;;;;;;5081658;27;61868;-80
2023/04/25 01:37:37;;;;;;;;;5.00;3.00;;;;;;;;5082412;27;62125;-80
2023/04/25 01:40:05;;;;;;;;;3.50;3.50;;;;;;;;5082231;28;62420;-80
2023/04/25 01:42:30;;;;;;;;;5.50;2.50;;;;;;;;5082067;28;61844;-81
2023/04/25 01:44:56;;;;;;;;;7.00;4.75;;;;;;;;5082092;28;61925;-80
2023/04/25 01:47:21;;;;;;;;;3.00;3.00;;;;;;;;5083743;27;61772;-80
2023/04/25 01:49:46;;;;;;;;;4.50;4.50;;;;;;;;5081265;27;62734;-80
2023/04/25 01:52:11;;;;;;;;;3.00;3.00;;;;;;;;5081381;27;63597;-81
2023/04/25 01:54:37;;;;;;;;;6.00;5.50;;;;;;;;5082774;28;62368;-81
2023/04/25 01:57:02;;;;;;;;;3.75;3.50;;;;;;;;5076591;28;62032;-81
2023/04/25 01:59:27;;;;;;;;;3.00;3.00;;;;;;;;5081556;28;62239;-80
2023/04/25 02:01:52;;;;;;;;;4.25;4.00;;;;;;;;5083026;28;61731;-81
2023/04/25 02:04:17;;;;;;;;;8.25;4.00;;;;;;;;5082505;28;61994;-80
2023/04/25 02:06:43;;;;;;;;;4.00;3.00;;;;;;;;5072392;27;61702;-81
2023/04/25 02:09:08;;;;;;;;;6.00;6.00;;;;;;;;5069531;28;61770;-80
2023/04/25 02:11:33;;;;;;;;;3.50;3.50;;;;;;;;5080944;28;64800;-80
2023/04/25 02:13:58;;;;;;;;;3.75;3.00;;;;;;;;5082811;28;61919;-80
2023/04/25 02:16:25;;;;;;;;;2.75;2.75;;;;;;;;5081681;28;62310;-80
2023/04/25 02:18:52;;;;;;;;;4.50;4.00;;;;;;;;5081889;27;61872;-80
2023/04/25 02:21:17;;;;;;;;;3.50;2.50;;;;;;;;5082646;27;61781;-81
2023/04/25 02:23:43;;;;;;;;;11.00;5.75;;;;;;;;5082803;28;62094;-81
2023/04/25 02:26:08;;;;;;;;;8.50;6.00;;;;;;;;5084492;27;61997;-81
2023/04/25 02:28:33;;;;;;;;;5.50;3.00;;;;;;;;5081348;28;61747;-81
2023/04/25 02:30:58;;;;;;;;;5.50;3.75;;;;;;;;5082259;28;62727;-81
2023/04/25 02:33:23;;;;;;;;;9.00;4.00;;;;;;;;5078811;27;61880;-81
2023/04/25 02:35:50;;;;;;;;;3.50;3.50;;;;;;;;5081807;27;61868;-81
2023/04/25 02:38:15;;;;;;;;;4.25;4.25;;;;;;;;5080877;28;61823;-81
2023/04/25 02:40:40;;;;;;;;;5.00;5.00;;;;;;;;5082343;28;62077;-81
2023/04/25 02:43:06;;;;;;;;;7.75;5.50;;;;;;;;5071420;28;61914;-81
2023/04/25 02:45:32;;;;;;;;;8.00;4.00;;;;;;;;5081495;27;61960;-81
2023/04/25 02:47:57;;;;;;;;;8.25;7.25;;;;;;;;5080833;27;61964;-80
2023/04/25 02:50:22;;;;;;;;;5.50;4.50;;;;;;;;5072588;28;62875;-81
2023/04/25 02:52:47;;;;;;;;;5.50;5.50;;;;;;;;5082723;28;62348;-81
2023/04/25 02:55:13;;;;;;;;;5.00;5.00;;;;;;;;5081924;28;62093;-80
2023/04/25 02:57:38;;;;;;;;;7.00;4.25;;;;;;;;5082730;28;61972;-81
2023/04/25 03:00:05;;;;;;;;;8.75;7.00;;;;;;;;5079513;28;63700;-81
2023/04/25 03:02:30;;;;;;;;;10.00;6.00;;;;;;;;5080048;28;62266;-81
2023/04/25 03:04:55;;;;;;;;;6.50;3.00;;;;;;;;5081903;27;62063;-81
2023/04/25 03:07:20;;;;;;;;;9.25;5.25;;;;;;;;5071520;28;61752;-81
2023/04/25 03:09:46;;;;;;;;;7.75;7.00;;;;;;;;5082123;28;62658;-82
2023/04/25 03:12:11;;;;;;;;;12.50;6.75;;;;;;;;5081621;28;61781;-81
2023/04/25 03:14:36;;;;;;;;;7.00;6.50;;;;;;;;5082462;28;62073;-81
2023/04/25 03:17:02;;;;;;;;;8.75;8.00;;;;;;;;5079968;28;61745;-81
2023/04/25 03:19:27;;;;;;;;;8.50;7.25;;;;;;;;5080897;27;61813;-80
2023/04/25 03:21:53;;;;;;;;;7.00;4.25;;;;;;;;5082128;28;61980;-80
2023/04/25 03:24:18;;;;;;;;;7.00;6.25;;;;;;;;5082100;27;61629;-81
2023/04/25 03:26:43;;;;;;;;;7.25;5.00;;;;;;;;5082276;27;61714;-81
2023/04/25 03:29:09;;;;;;;;;9.50;8.50;;;;;;;;5064942;27;62740;-81
2023/04/25 03:31:34;;;;;;;;;11.50;6.75;;;;;;;;5061372;28;62095;-80
2023/04/25 03:33:59;;;;;;;;;6.75;5.50;;;;;;;;5078998;27;61943;-80
2023/04/25 03:36:24;;;;;;;;;7.50;6.50;;;;;;;;5081527;27;61873;-80
2023/04/25 03:38:50;;;;;;;;;8.00;6.75;;;;;;;;5076581;28;63202;-80
2023/04/25 03:41:15;;;;;;;;;7.00;5.00;;;;;;;;5061917;28;61886;-80
2023/04/25 03:43:40;;;;;;;;;11.25;7.50;;;;;;;;5075769;28;61739;-80
2023/04/25 03:46:06;;;;;;;;;9.00;7.50;;;;;;;;5081733;28;61706;-80
2023/04/25 03:48:31;;;;;;;;;7.00;7.00;;;;;;;;5080288;27;62631;-80
2023/04/25 03:50:56;;;;;;;;;7.25;5.50;;;;;;;;5081143;28;61676;-80
2023/04/25 03:53:21;;;;;;;;;7.50;6.00;;;;;;;;5081970;28;61845;-81
2023/04/25 03:55:47;;;;;;;;;8.00;6.75;;;;;;;;5081441;27;61992;-81
2023/04/25 03:58:12;;;;;;;;;6.75;6.00;;;;;;;;5080294;27;61837;-81
2023/04/25 04:00:37;;;;;;;;;6.75;5.00;;;;;;;;5079702;27;63157;-81
2023/04/25 04:03:02;;;;;;;;;11.75;7.75;;;;;;;;5081989;28;61783;-82
2023/04/25 04:05:28;;;;;;;;;10.00;6.00;;;;;;;;5081106;27;61949;-81
2023/04/25 04:07:53;;;;;;;;;6.75;6.50;;;;;;;;5060460;28;64629;-81
2023/04/25 04:10:19;;;;;;;;;8.25;7.50;;;;;;;;5061483;28;61818;-81
2023/04/25 04:12:44;;;;;;;;;8.25;6.25;;;;;;;;5079919;27;62180;-81
2023/04/25 04:15:09;;;;;;;;;7.75;6.75;;;;;;;;5081196;27;61734;-81
2023/04/25 04:17:35;;;;;;;;;6.00;5.00;;;;;;;;5080628;27;62092;-81
2023/04/25 04:20:00;;;;;;;;;7.00;7.00;;;;;;;;5079758;28;61916;-80
2023/04/25 04:22:25;;;;;;;;;7.50;4.50;;;;;;;;5081292;28;61921;-81
2023/04/25 04:24:50;;;;;;;;;9.75;7.00;;;;;;;;5081550;27;61804;-81
2023/04/25 04:27:17;;;;;;;;;9.00;7.75;;;;;;;;5074479;27;62724;-80
2023/04/25 04:29:42;;;;;;;;;10.00;7.00;;;;;;;;5080202;27;62340;-81
2023/04/25 04:32:08;;;;;;;;;11.00;6.00;;;;;;;;5079664;27;62592;-81
2023/04/25 04:34:34;;;;;;;;;12.25;8.50;;;;;;;;5071754;28;62103;-80
2023/04/25 04:37:00;;;;;;;;;6.00;6.00;;;;;;;;5080150;27;62277;-81
2023/04/25 04:39:25;;;;;;;;;11.75;8.00;;;;;;;;5079263;28;61983;-80
2023/04/25 04:41:51;;;;;;;;;8.75;7.75;;;;;;;;5081295;28;62209;-81
2023/04/25 04:44:16;;;;;;;;;9.75;8.25;;;;;;;;5079230;27;62000;-81
2023/04/25 04:46:41;;;;;;;;;11.25;8.00;;;;;;;;5080176;28;61847;-81
2023/04/25 04:49:10;;;;;;;;;13.00;9.50;;;;;;;;5083016;27;62294;-80
2023/04/25 04:51:36;;;;;;;;;9.00;9.00;;;;;;;;5070983;28;61900;-81
2023/04/25 04:54:02;;;;;;;;;9.00;8.50;;;;;;;;5066680;28;62167;-80
2023/04/25 04:56:29;;;;;;;;;10.00;7.25;;;;;;;;5088809;27;61894;-81
2023/04/25 04:58:54;;;;;;;;;10.50;8.75;;;;;;;;5085098;27;61737;-80
2023/04/25 05:01:19;;;;;;;;;8.75;6.00;;;;;;;;5082748;28;61966;-81
2023/04/25 05:03:44;;;;;;;;;12.25;7.75;;;;;;;;5082796;28;62045;-80
2023/04/25 05:06:10;;;;;;;;;11.50;10.00;;;;;;;;5082287;27;62949;-80
2023/04/25 05:08:36;;;;;;;;;9.00;9.00;;;;;;;;5066575;28;61656;-81
2023/04/25 05:11:01;;;;;;;;;16.50;9.50;;;;;;;;5072437;28;61801;-81
2023/04/25 05:13:26;;;;;;;;;11.25;8.00;;;;;;;;5083059;27;61719;-83
2023/04/25 05:15:51;;;;;;;;;11.00;7.00;;;;;;;;5081445;28;63671;-84
2023/04/25 05:18:16;;;;;;;;;13.75;9.00;;;;;;;;5082766;28;61786;-85
2023/04/25 05:20:42;;;;;;;;;14.00;10.75;;;;;;;;5080766;27;61998;-84
2023/04/25 05:23:07;;;;;;;;;10.00;9.00;;;;;;;;5082548;28;61912;-85
2023/04/25 05:25:32;;;;;;;;;10.00;10.00;;;;;;;;5082412;27;62318;-86
2023/04/25 05:27:58;;;;;;;;;12.50;8.00;;;;;;;;5079780;27;61750;-84
2023/04/25 05:30:23;;;;;;;;;13.00;10.00;;;;;;;;5086203;27;61660;-85
2023/04/25 05:32:48;;;;;;;;;14.25;13.00;;;;;;;;5083983;27;61861;-84
2023/04/25 05:35:14;;;;;;;;;15.00;13.00;;;;;;;;5075319;27;61781;-83
2023/04/25 05:37:39;;;;;;;;;9.50;8.00;;;;;;;;5080712;27;61800;-83
2023/04/25 05:40:06;;;;;;;;;18.25;10.50;;;;;;;;5080767;28;61807;-83
2023/04/25 05:42:32;;;;;;;;;16.25;12.00;;;;;;;;5077171;27;62015;-83
2023/04/25 05:44:58;;;;;;;;;13.50;10.25;;;;;;;;5082808;27;62745;-83
2023/04/25 05:47:23;;;;;;;;;11.50;10.00;;;;;;;;5102651;27;61733;-83
2023/04/25 05:49:49;;;;;;;;;14.75;8.25;;;;;;;;5099239;27;61775;-83
2023/04/25 05:52:15;;;;;;;;;12.50;9.25;;;;;;;;5064484;27;62370;-83
2023/04/25 05:54:40;;;;;;;;;14.00;9.00;;;;;;;;5075100;28;63570;-83
2023/04/25 05:57:06;;;;;;;;;17.00;12.50;;;;;;;;5082759;27;62083;-82
2023/04/25 05:59:31;;;;;;;;;16.00;11.50;;;;;;;;5072965;27;61901;-80
2023/04/25 06:01:56;;;;;;;;;16.75;9.00;;;;;;;;5074509;28;61762;-82
2023/04/25 06:04:21;;;;;;;;;12.75;9.25;;;;;;;;5072007;27;61837;-82
2023/04/25 06:06:47;;;;;;;;;14.25;10.75;;;;;;;;5077723;28;61757;-81
2023/04/25 06:09:12;;;;;;;;;11.50;8.50;;;;;;;;5074484;27;61918;-81
2023/04/25 06:11:37;;;;;;;;;9.25;6.75;;;;;;;;5081489;27;61893;-81
2023/04/25 06:14:02;;;;;;;;;13.75;12.00;;;;;;;;5081871;27;61967;-82
2023/04/25 06:16:28;;;;;;;;;13.75;9.50;;;;;;;;5082182;27;61968;-81
2023/04/25 06:18:53;;;;;;;;;7.50;7.25;;;;;;;;5068199;28;61930;-82
2023/04/25 06:21:18;;;;;;;;;3.00;1.00;;;;;;;;5069942;28;61953;-81
2023/04/25 06:23:43;;;;;;;;;4.50;4.50;;;;;;;;5081039;27;63485;-83
2023/04/25 06:26:08;;;;;;;;;8.50;7.00;;;;;;;;5081812;27;61864;-81
2023/04/25 06:28:34;;;;;;;;;8.25;7.00;;;;;;;;5082322;28;62172;-80
2023/04/25 06:30:59;;;;;;;;;9.25;7.50;;;;;;;;5081817;27;61849;-80
2023/04/25 06:33:24;;;;;;;;;6.75;6.75;;;;;;;;5079155;28;63530;-80
2023/04/25 06:35:50;;;;;;;;;8.00;7.00;;;;;;;;5080578;27;61956;-80
2023/04/25 06:38:15;;;;;;;;;7.25;7.25;;;;;;;;5082568;28;62331;-80
2023/04/25 06:40:40;;;;;;;;;9.00;9.00;;;;;;;;5082177;27;61794;-80
2023/04/25 06:43:05;;;;;;;;;7.00;7.00;;;;;;;;5079695;27;63801;-80
2023/04/25 06:45:31;;;;;;;;;13.25;8.00;;;;;;;;5071243;28;62533;-80
2023/04/25 06:47:56;;;;;;;;;6.50;6.50;;;;;;;;5070107;27;61997;-83
2023/04/25 06:50:22;;;;;;;;;7.50;7.00;;;;;;;;5073989;27;62036;-81
2023/04/25 06:52:47;;;;;;;;;12.75;8.00;;;;;;;;5080988;28;62822;-80
2023/04/25 06:55:12;;;;;;;;;10.25;8.00;;;;;;;;5071238;28;62128;-80
2023/04/25 06:57:37;;;;;;;;;5.25;5.25;;;;;;;;5081771;27;61339;-84
2023/04/25 07:00:05;;;;;;;;;14.75;12.00;;;;;;;;5080527;28;62104;-82
2023/04/25 07:02:30;;;;;;;;;10.25;9.75;;;;;;;;5067662;27;62655;-79
2023/04/25 07:04:59;;;;;;;;;10.25;7.00;;;;;;;;5075260;27;61998;-80
2023/04/25 07:07:24;;;;;;;;;16.25;13.50;;;;;;;;5070030;27;62040;-79
2023/04/25 07:09:50;;;;;;;;;15.25;12.25;;;;;;;;5074407;28;62196;-81
2023/04/25 07:12:15;;;;;;;;;22.00;15.50;;;;;;;;5070837;27;62515;-81
2023/04/25 07:14:40;;;;;;;;;23.00;16.50;;;;;;;;5073535;27;62274;-80
2023/04/25 07:17:06;;;;;;;;;21.50;14.00;;;;;;;;5078405;28;62251;-81
2023/04/25 07:19:32;;;;;;;;;24.25;13.00;;;;;;;;5067087;27;62073;-82
2023/04/25 07:21:58;;;;;;;;;13.25;12.00;;;;;;;;5059312;28;63597;-80
2023/04/25 07:24:23;;;;;;;;;13.00;12.00;;;;;;;;5077999;27;61857;-79
2023/04/25 07:26:48;;;;;;;;;12.50;12.50;;;;;;;;5080601;28;62002;-79
2023/04/25 07:29:13;;;;;;;;;18.00;13.25;;;;;;;;5078069;27;61835;-79
2023/04/25 07:31:39;;;;;;;;;15.00;14.25;;;;;;;;5081117;27;62793;-80
2023/04/25 07:34:05;;;;;;;;;15.00;13.50;;;;;;;;5075896;27;62528;-79
2023/04/25 07:36:31;;;;;;;;;16.00;11.50;;;;;;;;5080458;27;61810;-79
2023/04/25 07:38:56;;;;;;;;;22.00;12.75;;;;;;;;5083361;27;62380;-79
2023/04/25 07:41:21;;;;;;;;;18.00;15.00;;;;;;;;5079063;28;63576;-80
2023/04/25 07:43:46;;;;;;;;;15.75;11.50;;;;;;;;5082679;27;62105;-79
2023/04/25 07:46:12;;;;;;;;;17.25;15.50;;;;;;;;5087164;27;61942;-79
2023/04/25 07:48:40;;;;;;;;;16.25;12.75;;;;;;;;5080083;28;62297;-79
2023/04/25 07:51:07;;;;;;;;;18.00;12.25;;;;;;;;5092214;27;63038;-80
2023/04/25 07:53:34;;;;;;;;;17.50;14.50;;;;;;;;5081345;27;62389;-79
2023/04/25 07:55:59;;;;;;;;;12.25;10.75;;;;;;;;5073022;27;61913;-80
2023/04/25 07:58:25;;;;;;;;;16.50;12.00;;;;;;;;5076724;28;61977;-79
2023/04/25 08:00:50;;;;;;;;;9.25;9.25;;;;;;;;5080584;28;61878;-81
2023/04/25 08:03:15;;;;;;;;;15.00;12.25;;;;;;;;5081571;28;61718;-79
2023/04/25 08:05:40;;;;;;;;;14.25;12.75;;;;;;;;5078559;28;61824;-79
2023/04/25 08:08:06;;;;;;;;;10.75;9.50;;;;;;;;5079879;28;61832;-80
2023/04/25 08:10:32;;;;;;;;;10.00;9.25;;;;;;;;5079950;28;63849;-79
2023/04/25 08:12:58;;;;;;;;;11.00;9.75;;;;;;;;5082323;27;61915;-80
2023/04/25 08:15:23;;;;;;;;;13.00;9.50;;;;;;;;5079024;28;61932;-80
2023/04/25 08:17:49;;;;;;;;;11.75;11.00;;;;;;;;5079475;28;62063;-80
2023/04/25 08:20:14;;;;;;;;;6.25;5.00;;;;;;;;5078773;28;61792;-80
2023/04/25 08:22:39;;;;;;;;;11.75;10.25;;;;;;;;5079495;27;61911;-79
2023/04/25 08:25:05;;;;;;;;;11.00;11.00;;;;;;;;5083947;27;61842;-80
2023/04/25 08:27:31;;;;;;;;;11.75;10.25;;;;;;;;5084535;27;61746;-80
2023/04/25 08:29:56;;;;;;;;;14.00;12.25;;;;;;;;5083575;28;63464;-81
2023/04/25 08:32:21;;;;;;;;;19.25;11.00;;;;;;;;5084518;28;62319;-82
2023/04/25 08:34:47;;;;;;;;;12.00;8.50;;;;;;;;5087617;27;61797;-81
2023/04/25 08:37:12;;;;;;;;;14.50;11.00;;;;;;;;5082990;27;61790;-81
2023/04/25 08:39:38;;;;;;;;;7.75;5.75;;;;;;;;5079918;28;62126;-80
2023/04/25 08:42:07;;;;;;;;;7.25;7.25;;;;;;;;5077471;28;61875;-80
2023/04/25 08:44:33;;;;;;;;;11.50;8.00;;;;;;;;5083311;27;61839;-80
2023/04/25 08:46:58;;;;;;;;;12.75;8.00;;;;;;;;5081935;28;61864;-80
2023/04/25 08:49:25;;;;;;;;;11.25;8.00;;;;;;;;5081943;28;62769;-78
2023/04/25 08:51:51;;;;;;;;;10.75;8.00;;;;;;;;5082327;28;61789;-80
2023/04/25 08:54:17;;;;;;;;;7.00;6.00;;;;;;;;5080930;28;62026;-81
2023/04/25 08:56:47;;;;;;;;;7.00;5.75;;;;;;;;5081778;27;61752;-79
2023/04/25 08:59:13;;;;;;;;;9.00;8.25;;;;;;;;5076661;28;63840;-78
2023/04/25 09:01:38;;;;;;;;;5.75;5.25;;;;;;;;5077172;27;61995;-79
2023/04/25 09:04:03;;;;;;;;;10.25;8.25;;;;;;;;5070758;28;62220;-79
2023/04/25 09:06:30;;;;;;;;;12.25;8.50;;;;;;;;5081339;28;62218;-82
2023/04/25 09:09:00;;;;;;;;;10.25;10.25;;;;;;;;5082930;27;62460;-79
2023/04/25 09:11:25;;;;;;;;;12.00;8.00;;;;;;;;5079199;27;62162;-83
2023/04/25 09:14:09;;;;;;;;;9.25;7.50;;;;;;;;5072338;27;61934;-80
2023/04/25 09:16:35;;;;;;;;;8.25;5.50;;;;;;;;5106217;27;61868;-81
2023/04/25 09:19:00;;;;;;;;;7.00;6.50;;;;;;;;5077586;27;61936;-80
2023/04/25 09:21:25;;;;;;;;;5.50;4.50;;;;;;;;5081567;28;62034;-84
2023/04/25 09:23:51;;;;;;;;;9.50;7.75;;;;;;;;5071634;28;62075;-81
2023/04/25 09:26:17;;;;;;;;;9.00;8.50;;;;;;;;5074978;28;61751;-79
2023/04/25 09:28:43;;;;;;;;;7.25;5.00;;;;;;;;5081842;27;62007;-79
2023/04/25 09:31:10;;;;;;;;;6.50;4.00;;;;;;;;5082403;28;62026;-79
2023/04/25 09:33:35;;;;;;;;;12.50;7.75;;;;;;;;5063002;28;61982;-79
2023/04/25 09:36:02;;;;;;;;;11.50;6.25;;;;;;;;5074421;27;61757;-79
2023/04/25 09:38:29;;;;;;;;;9.00;4.00;;;;;;;;5072848;27;65146;-79
2023/04/25 09:40:55;;;;;;;;;7.75;7.75;;;;;;;;5083246;27;62032;-78
2023/04/25 09:43:21;;;;;;;;;8.50;7.25;;;;;;;;5083443;27;61758;-79
2023/04/25 09:45:47;;;;;;;;;8.75;5.50;;;;;;;;5078911;27;62049;-79
2023/04/25 09:48:19;;;;;;;;;16.25;4.75;;;;;;;;5079027;27;61811;-79
2023/04/25 09:50:45;;;;;;;;;12.75;6.25;;;;;;;;5081320;28;61995;-79
2023/04/25 09:53:10;;;;;;;;;8.75;8.00;;;;;;;;5083211;27;62028;-79
2023/04/25 09:55:36;;;;;;;;;9.50;6.00;;;;;;;;5082020;28;62274;-79
2023/04/25 09:58:07;;;;;;;;;9.00;6.50;;;;;;;;5081707;27;61789;-79
2023/04/25 10:00:33;;;;;;;;;12.50;7.00;;;;;;;;5081230;28;61796;-80
2023/04/25 10:03:00;;;;;;;;;10.00;5.00;;;;;;;;5082396;27;61844;-79
2023/04/25 10:05:26;;;;;;;;;5.00;5.00;;;;;;;;5083020;27;61896;-79
2023/04/25 10:07:52;;;;;;;;;7.50;7.00;;;;;;;;5081061;28;63827;-79
2023/04/25 10:10:19;;;;;;;;;5.25;5.25;;;;;;;;5082596;27;61761;-79
2023/04/25 10:12:45;;;;;;;;;4.25;3.00;;;;;;;;5082700;27;61810;-79
2023/04/25 10:15:10;;;;;;;;;2.75;2.75;;;;;;;;5081899;27;62136;-79
2023/04/25 10:17:36;;;;;;;;;5.75;4.50;;;;;;;;5081015;27;62744;-79
2023/04/25 10:20:10;;;;;;;;;3.25;2.00;;;;;;;;5081395;28;61931;-79
2023/04/25 10:22:42;;;;;;;;;3.25;3.00;;;;;;;;5081951;27;61987;-80
2023/04/25 10:25:08;;;;;;;;;5.25;5.25;;;;;;;;5082873;27;61769;-79
2023/04/25 10:27:33;;;;;;;;;4.25;4.25;;;;;;;;5081602;27;63764;-79
2023/04/25 10:30:14;;;;;;;;;5.75;3.00;;;;;;;;5082347;27;61833;-79
2023/04/25 10:32:41;;;;;;;;;6.75;4.00;;;;;;;;5082017;27;61822;-79
2023/04/25 10:35:23;;;;;;;;;8.25;5.00;;;;;;;;5081996;27;61666;-79
2023/04/25 10:38:00;;;;;;;;;5.00;2.75;;;;;;;;5081870;28;61948;-79
2023/04/25 10:40:26;;;;;;;;;6.75;3.75;;;;;;;;5091478;27;62659;-79
2023/04/25 10:42:53;;;;;;;;;6.00;4.75;;;;;;;;5082360;27;62461;-79
2023/04/25 10:45:18;;;;;;;;;5.00;3.00;;;;;;;;5084688;27;61660;-79
2023/04/25 10:47:47;;;;;;;;;3.00;2.00;;;;;;;;5081621;27;61920;-82
2023/04/25 10:50:14;;;;;;;;;5.25;4.25;;;;;;;;5081012;28;61776;-83
2023/04/25 10:52:40;;;;;;;;;3.25;3.25;;;;;;;;5084658;27;61920;-81
2023/04/25 10:55:06;;;;;;;;;7.25;5.00;;;;;;;;5088185;28;61755;-81
2023/04/25 10:57:39;;;;;;;;;2.75;2.75;;;;;;;;5084461;27;61595;-81
2023/04/25 11:00:14;;;;;;;;;6.75;5.25;;;;;;;;5076645;27;61945;-79
2023/04/25 11:02:42;;;;;;;;;9.00;3.75;;;;;;;;5071501;27;62068;-80
2023/04/25 11:05:08;;;;;;;;;4.75;4.75;;;;;;;;5078728;28;61866;-80
2023/04/25 11:07:34;;;;;;;;;5.50;4.00;;;;;;;;5083976;27;61856;-80
2023/04/25 11:10:01;;;;;;;;;4.00;4.00;;;;;;;;5089007;27;61847;-80
2023/04/25 11:12:26;;;;;;;;;5.00;4.00;;;;;;;;5080351;27;61738;-79
2023/04/25 11:14:57;;;;;;;;;3.00;3.00;;;;;;;;5082093;27;61869;-80
2023/04/25 11:17:24;;;;;;;;;7.00;3.50;;;;;;;;5072056;27;62188;-79
2023/04/25 11:19:50;;;;;;;;;6.00;3.00;;;;;;;;5074771;28;62131;-79
2023/04/25 11:22:15;;;;;;;;;5.75;4.00;;;;;;;;5076958;27;61985;-79
2023/04/25 11:24:40;;;;;;;;;4.25;2.00;;;;;;;;5077409;28;61964;-80
2023/04/25 11:27:06;;;;;;;;;3.00;3.00;;;;;;;;5079518;28;61769;-80
2023/04/25 11:29:32;;;;;;;;;7.25;3.00;;;;;;;;5075712;27;61801;-79
2023/04/25 11:31:58;;;;;;;;;6.00;3.25;;;;;;;;5078961;27;61811;-80
2023/04/25 11:34:24;;;;;;;;;6.50;3.50;;;;;;;;5077418;28;61881;-80
2023/04/25 11:36:50;;;;;;;;;3.00;3.00;;;;;;;;5081135;28;62774;-79
2023/04/25 11:39:15;;;;;;;;;4.75;3.50;;;;;;;;5080430;27;61914;-79
2023/04/25 11:41:41;;;;;;;;;3.00;3.00;;;;;;;;5081805;27;61703;-79
2023/04/25 11:44:06;;;;;;;;;4.00;4.00;;;;;;;;5087626;27;61822;-81
2023/04/25 11:46:34;;;;;;;;;4.00;3.00;;;;;;;;5083079;27;61853;-80
2023/04/25 11:48:59;;;;;;;;;6.00;3.25;;;;;;;;5094914;27;61659;-79
2023/04/25 11:51:26;;;;;;;;;3.25;3.00;;;;;;;;5091259;27;61765;-80
2023/04/25 11:53:51;;;;;;;;;3.00;2.00;;;;;;;;5072590;27;61875;-81
2023/04/25 11:56:16;;;;;;;;;4.75;4.00;;;;;;;;5068449;28;64145;-81
2023/04/25 11:58:55;;;;;;;;;6.75;6.75;;;;;;;;5071120;28;61918;-80
2023/04/25 12:01:31;;;;;;;;;9.00;3.50;;;;;;;;5077449;27;61699;-80
2023/04/25 12:03:57;;;;;;;;;4.50;4.50;;;;;;;;5073790;28;61884;-80
2023/04/25 12:06:26;;;;;;;;;7.00;6.00;;;;;;;;5076306;28;61764;-80
2023/04/25 12:09:03;;;;;;;;;6.25;5.00;;;;;;;;5069329;28;61976;-81
2023/04/25 12:11:30;;;;;;;;;8.00;6.00;;;;;;;;5071454;27;61904;-80
2023/04/25 12:13:55;;;;;;;;;4.75;3.50;;;;;;;;5077719;27;61673;-80
2023/04/25 12:16:20;;;;;;;;;6.75;4.25;;;;;;;;5084057;28;62136;-80
2023/04/25 12:18:46;;;;;;;;;3.00;3.00;;;;;;;;5084933;28;62073;-80
2023/04/25 12:21:11;;;;;;;;;6.75;3.00;;;;;;;;5083715;27;61865;-80
2023/04/25 12:23:38;;;;;;;;;6.00;5.00;;;;;;;;5081310;27;61855;-81
2023/04/25 12:26:03;;;;;;;;;6.50;4.00;;;;;;;;5063724;28;62796;-81
2023/04/25 12:28:31;;;;;;;;;7.00;5.00;;;;;;;;5064006;28;61771;-80
2023/04/25 12:31:04;;;;;;;;;8.00;6.50;;;;;;;;5067532;27;61832;-79
2023/04/25 12:33:39;;;;;;;;;4.50;4.50;;;;;;;;5083164;28;61884;-80
2023/04/25 12:36:08;;;;;;;;;5.25;3.25;;;;;;;;5083772;27;62070;-80
2023/04/25 12:38:38;;;;;;;;;5.00;5.00;;;;;;;;5079670;28;61824;-80
2023/04/25 12:41:03;;;;;;;;;4.25;4.25;;;;;;;;5062567;27;61754;-79
2023/04/25 12:43:28;;;;;;;;;5.00;4.50;;;;;;;;5079296;28;61729;-79
2023/04/25 12:45:54;;;;;;;;;9.25;3.25;;;;;;;;5078703;28;61983;-79
2023/04/25 12:48:20;;;;;;;;;3.75;3.75;;;;;;;;5084301;27;61975;-80
2023/04/25 12:50:49;;;;;;;;;6.25;5.25;;;;;;;;5082388;27;61892;-79
2023/04/25 12:53:18;;;;;;;;;5.50;4.25;;;;;;;;5083218;27;61807;-79
2023/04/25 12:55:45;;;;;;;;;6.75;5.50;;;;;;;;5078468;27;61954;-79
2023/04/25 12:58:12;;;;;;;;;3.75;3.00;;;;;;;;5063338;28;61933;-79
2023/04/25 13:00:38;;;;;;;;;9.25;3.00;;;;;;;;5081469;28;61790;-79
2023/04/25 13:03:04;;;;;;;;;8.00;5.00;;;;;;;;5083307;27;61854;-80
2023/04/25 13:05:30;;;;;;;;;6.00;3.25;;;;;;;;5082649;27;61969;-79
2023/04/25 13:07:55;;;;;;;;;6.25;4.00;;;;;;;;5084050;28;61707;-79
2023/04/25 13:10:21;;;;;;;;;5.25;4.00;;;;;;;;5082082;27;62249;-80
2023/04/25 13:12:46;;;;;;;;;5.00;5.00;;;;;;;;5082555;28;61858;-80
2023/04/25 13:15:11;;;;;;;;;7.00;4.50;;;;;;;;5081477;27;65124;-80
2023/04/25 13:17:40;;;;;;;;;21.75;19.25;;;;;;;;5088761;27;61706;-80
2023/04/25 13:20:09;;;;;;;;;12.25;11.00;;;;;;;;5100235;27;61812;-79
2023/04/25 13:22:36;;;;;;;;;4.00;3.00;;;;;;;;5083005;27;61720;-79
2023/04/25 13:25:02;;;;;;;;;7.75;3.00;;;;;;;;5081988;28;63643;-79
2023/04/25 13:27:27;;;;;;;;;9.50;7.00;;;;;;;;5083081;27;61820;-80
2023/04/25 13:29:52;;;;;;;;;9.75;5.25;;;;;;;;5097716;27;61943;-80
2023/04/25 13:32:18;;;;;;;;;3.75;3.00;;;;;;;;5093573;27;61706;-80
2023/04/25 13:34:43;;;;;;;;;4.00;4.00;;;;;;;;5091599;27;65203;-80
2023/04/25 13:37:08;;;;;;;;;6.00;3.50;;;;;;;;5103210;27;61697;-79
2023/04/25 13:39:33;;;;;;;;;5.00;3.00;;;;;;;;5073690;27;62114;-80
2023/04/25 13:41:58;;;;;;;;;4.50;4.50;;;;;;;;5070405;27;61702;-79
2023/04/25 13:44:24;;;;;;;;;5.75;4.00;;;;;;;;5089106;27;61990;-80
2023/04/25 13:46:49;;;;;;;;;7.00;4.00;;;;;;;;5103374;27;61792;-80
2023/04/25 13:49:14;;;;;;;;;4.75;2.75;;;;;;;;5103987;27;61687;-80
2023/04/25 13:51:40;;;;;;;;;3.00;3.00;;;;;;;;5098489;27;61851;-79
2023/04/25 13:54:05;;;;;;;;;4.00;4.00;;;;;;;;5082775;27;62358;-80
2023/04/25 13:56:31;;;;;;;;;4.25;3.25;;;;;;;;5082736;28;61904;-79
2023/04/25 13:58:56;;;;;;;;;2.25;2.25;;;;;;;;5083103;27;61777;-80
2023/04/25 14:01:21;;;;;;;;;4.00;3.25;;;;;;;;5083434;27;61850;-79
2023/04/25 14:03:47;;;;;;;;;3.75;2.00;;;;;;;;5082502;28;61760;-79
2023/04/25 14:06:13;;;;;;;;;3.00;2.00;;;;;;;;5084936;27;62182;-79
2023/04/25 14:08:38;;;;;;;;;5.50;4.50;;;;;;;;5103102;27;61986;-79
2023/04/25 14:11:04;;;;;;;;;7.50;4.00;;;;;;;;5098262;27;61839;-79
2023/04/25 14:13:29;;;;;;;;;3.50;3.50;;;;;;;;5080538;28;63654;-80
2023/04/25 14:15:54;;;;;;;;;10.00;6.75;;;;;;;;5077955;27;61699;-80
2023/04/25 14:18:19;;;;;;;;;2.75;2.75;;;;;;;;5070654;28;61860;-80
2023/04/25 14:20:45;;;;;;;;;3.50;3.50;;;;;;;;5074889;27;61681;-80
2023/04/25 14:23:10;;;;;;;;;4.25;2.00;;;;;;;;5082496;28;61998;-80
2023/04/25 14:25:36;;;;;;;;;7.25;6.75;;;;;;;;5067608;27;62025;-81
2023/04/25 14:28:01;;;;;;;;;5.75;4.00;;;;;;;;5072252;27;62073;-80
2023/04/25 14:30:26;;;;;;;;;5.00;4.00;;;;;;;;5082477;27;62077;-84